Hyperion — V7K06 — position and weather

sailwx.info

Track history (hours):
 
Tides and Currents Weather Stations Pressure Air Temp Water Temp Dewpoint Dewpoint Depression Visibility Wind Speed Wind Dir Waves Ship Positions

Hyperion

Last reported at 2015-May-22 18:23 UTC. Time now 2015-May-23 01:10 UTC.
Position N 50°06' W 003°04'.

Length 48 m; draft 4.8 m.

Type: Sailing vessel. MMSI: 538080020.

Date/timePositionNaut miles runAvg speedWind from/ knotsBaromVisibWave heightAir tempDewpointWater temp
2015-May-22 18:23N 50°06' W 003°04'1011.4
2015-May-22 17:33N 50°11' W 002°51'1212.0
2015-May-22 16:33N 50°17' W 002°35'1312.4
2015-May-22 15:29N 50°24' W 002°17'8 8.1
2015-May-22 14:33N 50°28' W 002°07'1111.0
2015-May-22 13:33N 50°33' W 001°52'1010.2
2015-May-22 12:33N 50°39' W 001°39'9 8.5
2015-May-22 11:33N 50°44' W 001°28'8 8.0
2015-May-22 10:34N 50°46' W 001°16'6 5.5
2015-May-22 09:33N 50°47' W 001°07'0 0.0
2015-May-22 08:33N 50°47' W 001°07'0 0.0
2015-May-22 07:33N 50°47' W 001°07'0 0.0
2015-May-22 06:33N 50°47' W 001°07'0 0.0
2015-May-22 05:33N 50°47' W 001°07'0 0.0
2015-May-22 04:33N 50°47' W 001°07'0 0.0
2015-May-22 03:33N 50°47' W 001°07'0 0.0
2015-May-22 02:33N 50°47' W 001°07'0 0.0
2015-May-22 01:33N 50°47' W 001°07'0 0.0
2015-May-22 00:33N 50°47' W 001°07'0 0.0
2015-May-21 23:33N 50°47' W 001°07'0 0.0
2015-May-21 22:33N 50°47' W 001°07'0 0.0
2015-May-21 21:33N 50°47' W 001°07'0 0.0
2015-May-21 20:33N 50°47' W 001°07'0 0.0
2015-May-21 19:33N 50°47' W 001°07'0 0.0
2015-May-21 18:33N 50°47' W 001°07'0 0.0
2015-May-21 17:32N 50°47' W 001°07'0 0.0
2015-May-21 16:33N 50°47' W 001°07'0 0.0
2015-May-21 15:32N 50°47' W 001°07'2 2.0
2015-May-21 14:33N 50°46' W 001°08'4 4.3
2015-May-21 13:33N 50°46' W 001°15'5 5.1
2015-May-21 12:31N 50°47' W 001°07'0 0.0
2015-May-21 11:31N 50°47' W 001°07'0 0.0
2015-May-21 10:31N 50°47' W 001°07'0 0.0
2015-May-21 09:31N 50°47' W 001°07'0 0.0
2015-May-21 08:31N 50°47' W 001°07'0 0.0
2015-May-21 07:31N 50°47' W 001°07'0 0.0
2015-May-21 06:34N 50°47' W 001°07'0 0.0
2015-May-21 05:31N 50°47' W 001°07'0 0.0
2015-May-21 04:31N 50°47' W 001°07'0 0.0
2015-May-21 03:34N 50°47' W 001°07'0 0.0
2015-May-21 02:34N 50°47' W 001°07'0 0.0
2015-May-21 01:34N 50°47' W 001°07'0 0.0
2015-May-21 00:34N 50°47' W 001°07'0 0.0
2015-May-20 23:34N 50°47' W 001°07'0 0.0
2015-May-20 22:34N 50°47' W 001°07'0 0.0
2015-May-20 21:34N 50°47' W 001°07'0 0.0
2015-May-20 20:34N 50°47' W 001°07'0 0.0
2015-May-20 19:34N 50°47' W 001°07'0 0.0
2015-May-20 18:34N 50°47' W 001°07'0 0.0
2015-May-20 17:34N 50°47' W 001°07'0 0.0
2015-May-20 16:34N 50°47' W 001°07'0 0.0
2015-May-20 15:31N 50°47' W 001°07'0 0.0
2015-May-20 14:34N 50°47' W 001°07'0 0.0
2015-May-20 13:34N 50°47' W 001°07'0 0.0
2015-May-20 12:34N 50°47' W 001°07'0 0.0
2015-May-20 11:34N 50°47' W 001°07'0 0.0
2015-May-20 10:34N 50°47' W 001°07'0 0.0
2015-May-20 09:34N 50°47' W 001°07'0 0.0
2015-May-20 08:34N 50°47' W 001°07'0 0.0
2015-May-20 07:34N 50°47' W 001°07'0 0.0
2015-May-20 06:33N 50°47' W 001°07'0 0.0
2015-May-20 05:33N 50°47' W 001°07'0 0.0
2015-May-20 04:34N 50°47' W 001°07'0 0.0
2015-May-20 03:33N 50°47' W 001°07'0 0.0
2015-May-20 02:33N 50°47' W 001°07'0 0.0
2015-May-20 01:33N 50°47' W 001°07'0 0.0
2015-May-20 00:33N 50°47' W 001°07'0 0.0
2015-May-19 23:33N 50°47' W 001°07'0 0.0
2015-May-19 22:33N 50°47' W 001°07'0 0.0
2015-May-19 21:33N 50°47' W 001°07'0 0.0
2015-May-19 20:33N 50°47' W 001°07'0 0.0
2015-May-19 19:33N 50°47' W 001°07'0 0.0
2015-May-19 18:33N 50°47' W 001°07'0 0.0
2015-May-19 17:33N 50°47' W 001°07'2 2.2
2015-May-19 16:33N 50°46' W 001°09'6 5.7
2015-May-19 15:33N 50°46' W 001°18'7 7.2
2015-May-19 14:34N 50°47' W 001°07'0 0.2
2015-May-19 13:33N 50°47' W 001°07'0 0.0
2015-May-19 12:33N 50°47' W 001°07'0 0.0
2015-May-19 11:33N 50°47' W 001°07'0 0.0
2015-May-19 10:33N 50°47' W 001°07'0 0.0
2015-May-19 09:33N 50°47' W 001°07'0 0.0
2015-May-19 08:33N 50°47' W 001°07'0 0.0
2015-May-19 07:33N 50°47' W 001°07'0 0.0
2015-May-19 06:33N 50°47' W 001°07'0 0.0
2015-May-19 05:33N 50°47' W 001°07'0 0.0
2015-May-19 04:30N 50°47' W 001°07'0 0.0
2015-May-19 03:33N 50°47' W 001°07'0 0.0
2015-May-19 02:33N 50°47' W 001°07'0 0.0
2015-May-19 01:33N 50°47' W 001°07'0 0.0
2015-May-19 00:33N 50°47' W 001°07'0 0.0
2015-May-18 23:33N 50°47' W 001°07'0 0.0
2015-May-18 22:33N 50°47' W 001°07'0 0.0
2015-May-18 21:33N 50°47' W 001°07'0 0.0
2015-May-18 20:33N 50°47' W 001°07'0 0.0
2015-May-18 19:33N 50°47' W 001°07'0 0.0
2015-May-18 18:33N 50°47' W 001°07'0 0.0
2015-May-18 17:33N 50°47' W 001°07'0 0.0
2015-May-18 16:33N 50°47' W 001°07'0 0.0
2015-May-18 15:33N 50°47' W 001°07'0 0.0
2015-May-18 14:33N 50°47' W 001°07'0 0.0
2015-May-18 13:33N 50°47' W 001°07'0 0.0
2015-May-18 12:33N 50°47' W 001°07'0 0.0
2015-May-18 11:33N 50°47' W 001°07'0 0.0
2015-May-18 10:33N 50°47' W 001°07'0 0.0
2015-May-18 09:33N 50°47' W 001°07'0 0.0
2015-May-18 08:33N 50°47' W 001°07'0 0.0
2015-May-18 07:33N 50°47' W 001°07'0 0.0
2015-May-18 06:33N 50°47' W 001°07'0 0.0
2015-May-18 05:33N 50°47' W 001°07'0 0.0
2015-May-18 04:33N 50°47' W 001°07'0 0.0
2015-May-18 03:33N 50°47' W 001°07'0 0.0
2015-May-18 02:33N 50°47' W 001°07'0 0.0
2015-May-18 01:33N 50°47' W 001°07'0 0.0
2015-May-18 00:33N 50°47' W 001°07'0 0.0
2015-May-17 23:33N 50°47' W 001°07'0 0.0
2015-May-17 22:33N 50°47' W 001°07'0 0.0
2015-May-17 21:33N 50°47' W 001°07'0 0.0
2015-May-17 20:33N 50°47' W 001°07'0 0.0
2015-May-17 19:33N 50°47' W 001°07'0 0.0
2015-May-17 18:33N 50°47' W 001°07'0 0.0
2015-May-17 17:33N 50°47' W 001°07'0 0.0
2015-May-17 16:33N 50°47' W 001°07'0 0.0
2015-May-17 15:33N 50°47' W 001°07'0 0.0
2015-May-17 14:33N 50°47' W 001°07'0 0.0
2015-May-17 13:33N 50°47' W 001°07'0 0.0
2015-May-17 12:33N 50°47' W 001°07'0 0.0
2015-May-17 11:33N 50°47' W 001°07'0 0.0
2015-May-17 10:33N 50°47' W 001°07'0 0.0
2015-May-17 09:33N 50°47' W 001°07'0 0.0
2015-May-17 08:33N 50°47' W 001°07'0 0.0
2015-May-17 07:33N 50°47' W 001°07'0 0.0
2015-May-17 06:33N 50°47' W 001°07'0 0.0
2015-May-17 05:33N 50°47' W 001°07'0 0.0
2015-May-17 04:30N 50°47' W 001°07'0 0.0
2015-May-17 03:33N 50°47' W 001°07'0 0.0
2015-May-17 02:33N 50°47' W 001°07'0 0.0
2015-May-17 01:33N 50°47' W 001°07'0 0.0
2015-May-17 00:33N 50°47' W 001°07'0 0.0
2015-May-16 23:33N 50°47' W 001°07'0 0.0
2015-May-16 22:33N 50°47' W 001°07'0 0.0
2015-May-16 21:33N 50°47' W 001°07'0 0.0
2015-May-16 20:33N 50°47' W 001°07'0 0.0
2015-May-16 19:33N 50°47' W 001°07'0 0.0
2015-May-16 18:33N 50°47' W 001°07'0 0.0
2015-May-16 17:33N 50°47' W 001°07'0 0.0
2015-May-16 16:30N 50°47' W 001°07'0 0.0
2015-May-16 15:33N 50°47' W 001°07'0 0.0
2015-May-16 14:33N 50°47' W 001°07'0 0.0
2015-May-16 13:33N 50°47' W 001°07'0 0.0
2015-May-16 12:33N 50°47' W 001°07'0 0.0
2015-May-16 11:33N 50°47' W 001°07'0 0.0
2015-May-16 10:33N 50°47' W 001°07'0 0.0
2015-May-16 09:33N 50°47' W 001°07'0 0.0
2015-May-16 08:33N 50°47' W 001°07'0 0.0
2015-May-16 07:33N 50°47' W 001°07'0 0.0
2015-May-16 06:33N 50°47' W 001°07'0 0.0
2015-May-16 05:33N 50°47' W 001°07'0 0.0
2015-May-16 04:33N 50°47' W 001°07'0 0.3
2015-May-16 03:34N 50°48' W 001°07'6 5.6
2015-May-16 02:33N 50°43' W 001°01'8 8.5
2015-May-16 01:33N 50°37' W 000°53'33 9.6
2015-May-15 22:06N 50°32' W 000°02'710.0
2015-May-15 21:25N 50°34' E 000°09'9 9.3
2015-May-15 20:30N 50°36' E 000°22'8 8.6
2015-May-15 19:33N 50°38' E 000°34'8 8.1
2015-May-15 18:34N 50°43' E 000°45'10 9.3
2015-May-15 17:32N 50°48' E 000°57'1211.3
2015-May-15 16:31N 50°55' E 001°12'1212.5
2015-May-15 15:33N 51°03' E 001°26'1211.7
2015-May-15 14:34N 51°10' E 001°41'1010.3
2015-May-15 13:34N 51°19' E 001°50'9 8.9
2015-May-15 12:34N 51°27' E 001°57'9 8.7
2015-May-15 11:33N 51°34' E 002°05'8 8.4
2015-May-15 10:33N 51°40' E 002°15'30 9.5
2015-May-15 07:23N 52°00' E 002°51'1111.6
2015-May-15 06:26N 52°02' E 003°08'1310.3
2015-May-15 05:13N 52°06' E 003°28'53 8.0
2015-May-14 22:34N 52°56' E 003°58'3411.3
2015-May-14 19:34N 53°17' E 004°42'1312.8
2015-May-14 18:33N 53°19' E 005°03'9 9.2
2015-May-14 17:33N 53°14' E 005°16'6 6.3
2015-May-14 16:32N 53°11' E 005°26'0 0.0
2015-May-14 15:32N 53°11' E 005°26'0 0.0
2015-May-14 14:32N 53°11' E 005°26'0 0.0
2015-May-14 13:32N 53°11' E 005°26'0 0.0
2015-May-14 12:32N 53°11' E 005°26'0 0.0
2015-May-14 11:32N 53°11' E 005°26'0 0.0
2015-May-14 10:32N 53°11' E 005°26'0 0.0
2015-May-14 09:32N 53°11' E 005°26'0 0.0
2015-May-14 08:32N 53°11' E 005°26'0 0.0
2015-May-14 07:32N 53°11' E 005°26'0 0.0
2015-May-14 06:32N 53°11' E 005°26'0 0.0
2015-May-14 05:32N 53°11' E 005°26'0 0.0
2015-May-14 04:32N 53°11' E 005°26'0 0.0
2015-May-14 03:32N 53°11' E 005°26'0 0.0
2015-May-14 02:32N 53°11' E 005°26'0 0.0
2015-May-14 01:32N 53°11' E 005°26'0 0.0
2015-May-14 00:32N 53°11' E 005°26'0 0.0
2015-May-13 23:32N 53°11' E 005°26'0 0.0
2015-May-13 22:32N 53°11' E 005°26'0 0.0
2015-May-13 21:32N 53°11' E 005°26'0 0.0
2015-May-13 20:32N 53°11' E 005°26'0 0.0
2015-May-13 19:32N 53°11' E 005°26'0 0.0
2015-May-13 18:32N 53°11' E 005°26'0 0.0
2015-May-13 17:32N 53°11' E 005°26'0 0.0
2015-May-13 16:32N 53°11' E 005°26'0 0.0
2015-May-13 15:32N 53°11' E 005°26'0 0.0
2015-May-13 14:32N 53°11' E 005°26'0 0.0
2015-May-13 13:32N 53°11' E 005°26'0 0.0
2015-May-13 12:32N 53°11' E 005°26'0 0.0
2015-May-13 11:32N 53°11' E 005°26'0 0.0
2015-May-13 10:32N 53°11' E 005°26'0 0.0
2015-May-13 09:32N 53°11' E 005°26'0 0.0
2015-May-13 08:20N 53°11' E 005°26'  
Track history (hours):
 
Tides and Currents Weather Stations Pressure Air Temp Water Temp Dewpoint Dewpoint Depression Visibility Wind Speed Wind Dir Waves Ship Positions

Hyperion

Last reported at 2015-May-22 18:23 UTC. Time now 2015-May-23 01:10 UTC.
Position N 50°06' W 003°04'.

Length 48 m; draft 4.8 m.

Type: Sailing vessel. MMSI: 538080020.

Date/timePositionNaut miles runAvg speedWind from/ knotsBaromVisibWave heightAir tempDewpointWater temp
2015-May-22 18:23N 50°06' W 003°04'1011.4
2015-May-22 17:33N 50°11' W 002°51'1212.0
2015-May-22 16:33N 50°17' W 002°35'1312.4
2015-May-22 15:29N 50°24' W 002°17'8 8.1
2015-May-22 14:33N 50°28' W 002°07'1111.0
2015-May-22 13:33N 50°33' W 001°52'1010.2
2015-May-22 12:33N 50°39' W 001°39'9 8.5
2015-May-22 11:33N 50°44' W 001°28'8 8.0
2015-May-22 10:34N 50°46' W 001°16'6 5.5
2015-May-22 09:33N 50°47' W 001°07'0 0.0
2015-May-22 08:33N 50°47' W 001°07'0 0.0
2015-May-22 07:33N 50°47' W 001°07'0 0.0
2015-May-22 06:33N 50°47' W 001°07'0 0.0
2015-May-22 05:33N 50°47' W 001°07'0 0.0
2015-May-22 04:33N 50°47' W 001°07'0 0.0
2015-May-22 03:33N 50°47' W 001°07'0 0.0
2015-May-22 02:33N 50°47' W 001°07'0 0.0
2015-May-22 01:33N 50°47' W 001°07'0 0.0
2015-May-22 00:33N 50°47' W 001°07'0 0.0
2015-May-21 23:33N 50°47' W 001°07'0 0.0
2015-May-21 22:33N 50°47' W 001°07'0 0.0
2015-May-21 21:33N 50°47' W 001°07'0 0.0
2015-May-21 20:33N 50°47' W 001°07'0 0.0
2015-May-21 19:33N 50°47' W 001°07'0 0.0
2015-May-21 18:33N 50°47' W 001°07'0 0.0
2015-May-21 17:32N 50°47' W 001°07'0 0.0
2015-May-21 16:33N 50°47' W 001°07'0 0.0
2015-May-21 15:32N 50°47' W 001°07'2 2.0
2015-May-21 14:33N 50°46' W 001°08'4 4.3
2015-May-21 13:33N 50°46' W 001°15'5 5.1
2015-May-21 12:31N 50°47' W 001°07'0 0.0
2015-May-21 11:31N 50°47' W 001°07'0 0.0
2015-May-21 10:31N 50°47' W 001°07'0 0.0
2015-May-21 09:31N 50°47' W 001°07'0 0.0
2015-May-21 08:31N 50°47' W 001°07'0 0.0
2015-May-21 07:31N 50°47' W 001°07'0 0.0
2015-May-21 06:34N 50°47' W 001°07'0 0.0
2015-May-21 05:31N 50°47' W 001°07'0 0.0
2015-May-21 04:31N 50°47' W 001°07'0 0.0
2015-May-21 03:34N 50°47' W 001°07'0 0.0
2015-May-21 02:34N 50°47' W 001°07'0 0.0
2015-May-21 01:34N 50°47' W 001°07'0 0.0
2015-May-21 00:34N 50°47' W 001°07'0 0.0
2015-May-20 23:34N 50°47' W 001°07'0 0.0
2015-May-20 22:34N 50°47' W 001°07'0 0.0
2015-May-20 21:34N 50°47' W 001°07'0 0.0
2015-May-20 20:34N 50°47' W 001°07'0 0.0
2015-May-20 19:34N 50°47' W 001°07'0 0.0
2015-May-20 18:34N 50°47' W 001°07'0 0.0
2015-May-20 17:34N 50°47' W 001°07'0 0.0
2015-May-20 16:34N 50°47' W 001°07'0 0.0
2015-May-20 15:31N 50°47' W 001°07'0 0.0
2015-May-20 14:34N 50°47' W 001°07'0 0.0
2015-May-20 13:34N 50°47' W 001°07'0 0.0
2015-May-20 12:34N 50°47' W 001°07'0 0.0
2015-May-20 11:34N 50°47' W 001°07'0 0.0
2015-May-20 10:34N 50°47' W 001°07'0 0.0
2015-May-20 09:34N 50°47' W 001°07'0 0.0
2015-May-20 08:34N 50°47' W 001°07'0 0.0
2015-May-20 07:34N 50°47' W 001°07'0 0.0
2015-May-20 06:33N 50°47' W 001°07'0 0.0
2015-May-20 05:33N 50°47' W 001°07'0 0.0
2015-May-20 04:34N 50°47' W 001°07'0 0.0
2015-May-20 03:33N 50°47' W 001°07'0 0.0
2015-May-20 02:33N 50°47' W 001°07'0 0.0
2015-May-20 01:33N 50°47' W 001°07'0 0.0
2015-May-20 00:33N 50°47' W 001°07'0 0.0
2015-May-19 23:33N 50°47' W 001°07'0 0.0
2015-May-19 22:33N 50°47' W 001°07'0 0.0
2015-May-19 21:33N 50°47' W 001°07'0 0.0
2015-May-19 20:33N 50°47' W 001°07'0 0.0
2015-May-19 19:33N 50°47' W 001°07'0 0.0
2015-May-19 18:33N 50°47' W 001°07'0 0.0
2015-May-19 17:33N 50°47' W 001°07'2 2.2
2015-May-19 16:33N 50°46' W 001°09'6 5.7
2015-May-19 15:33N 50°46' W 001°18'7 7.2
2015-May-19 14:34N 50°47' W 001°07'0 0.2
2015-May-19 13:33N 50°47' W 001°07'0 0.0
2015-May-19 12:33N 50°47' W 001°07'0 0.0
2015-May-19 11:33N 50°47' W 001°07'0 0.0
2015-May-19 10:33N 50°47' W 001°07'0 0.0
2015-May-19 09:33N 50°47' W 001°07'0 0.0
2015-May-19 08:33N 50°47' W 001°07'0 0.0
2015-May-19 07:33N 50°47' W 001°07'0 0.0
2015-May-19 06:33N 50°47' W 001°07'0 0.0
2015-May-19 05:33N 50°47' W 001°07'0 0.0
2015-May-19 04:30N 50°47' W 001°07'0 0.0
2015-May-19 03:33N 50°47' W 001°07'0 0.0
2015-May-19 02:33N 50°47' W 001°07'0 0.0
2015-May-19 01:33N 50°47' W 001°07'0 0.0
2015-May-19 00:33N 50°47' W 001°07'0 0.0
2015-May-18 23:33N 50°47' W 001°07'0 0.0
2015-May-18 22:33N 50°47' W 001°07'0 0.0
2015-May-18 21:33N 50°47' W 001°07'0 0.0
2015-May-18 20:33N 50°47' W 001°07'0 0.0
2015-May-18 19:33N 50°47' W 001°07'0 0.0
2015-May-18 18:33N 50°47' W 001°07'0 0.0
2015-May-18 17:33N 50°47' W 001°07'0 0.0
2015-May-18 16:33N 50°47' W 001°07'0 0.0
2015-May-18 15:33N 50°47' W 001°07'0 0.0
2015-May-18 14:33N 50°47' W 001°07'0 0.0
2015-May-18 13:33N 50°47' W 001°07'0 0.0
2015-May-18 12:33N 50°47' W 001°07'0 0.0
2015-May-18 11:33N 50°47' W 001°07'0 0.0
2015-May-18 10:33N 50°47' W 001°07'0 0.0
2015-May-18 09:33N 50°47' W 001°07'0 0.0
2015-May-18 08:33N 50°47' W 001°07'0 0.0
2015-May-18 07:33N 50°47' W 001°07'0 0.0
2015-May-18 06:33N 50°47' W 001°07'0 0.0
2015-May-18 05:33N 50°47' W 001°07'0 0.0
2015-May-18 04:33N 50°47' W 001°07'0 0.0
2015-May-18 03:33N 50°47' W 001°07'0 0.0
2015-May-18 02:33N 50°47' W 001°07'0 0.0
2015-May-18 01:33N 50°47' W 001°07'0 0.0
2015-May-18 00:33N 50°47' W 001°07'0 0.0
2015-May-17 23:33N 50°47' W 001°07'0 0.0
2015-May-17 22:33N 50°47' W 001°07'0 0.0
2015-May-17 21:33N 50°47' W 001°07'0 0.0
2015-May-17 20:33N 50°47' W 001°07'0 0.0
2015-May-17 19:33N 50°47' W 001°07'0 0.0
2015-May-17 18:33N 50°47' W 001°07'0 0.0
2015-May-17 17:33N 50°47' W 001°07'0 0.0
2015-May-17 16:33N 50°47' W 001°07'0 0.0
2015-May-17 15:33N 50°47' W 001°07'0 0.0
2015-May-17 14:33N 50°47' W 001°07'0 0.0
2015-May-17 13:33N 50°47' W 001°07'0 0.0
2015-May-17 12:33N 50°47' W 001°07'0 0.0
2015-May-17 11:33N 50°47' W 001°07'0 0.0
2015-May-17 10:33N 50°47' W 001°07'0 0.0
2015-May-17 09:33N 50°47' W 001°07'0 0.0
2015-May-17 08:33N 50°47' W 001°07'0 0.0
2015-May-17 07:33N 50°47' W 001°07'0 0.0
2015-May-17 06:33N 50°47' W 001°07'0 0.0
2015-May-17 05:33N 50°47' W 001°07'0 0.0
2015-May-17 04:30N 50°47' W 001°07'0 0.0
2015-May-17 03:33N 50°47' W 001°07'0 0.0
2015-May-17 02:33N 50°47' W 001°07'0 0.0
2015-May-17 01:33N 50°47' W 001°07'0 0.0
2015-May-17 00:33N 50°47' W 001°07'0 0.0
2015-May-16 23:33N 50°47' W 001°07'0 0.0
2015-May-16 22:33N 50°47' W 001°07'0 0.0
2015-May-16 21:33N 50°47' W 001°07'0 0.0
2015-May-16 20:33N 50°47' W 001°07'0 0.0
2015-May-16 19:33N 50°47' W 001°07'0 0.0
2015-May-16 18:33N 50°47' W 001°07'0 0.0
2015-May-16 17:33N 50°47' W 001°07'0 0.0
2015-May-16 16:30N 50°47' W 001°07'0 0.0
2015-May-16 15:33N 50°47' W 001°07'0 0.0
2015-May-16 14:33N 50°47' W 001°07'0 0.0
2015-May-16 13:33N 50°47' W 001°07'0 0.0
2015-May-16 12:33N 50°47' W 001°07'0 0.0
2015-May-16 11:33N 50°47' W 001°07'0 0.0
2015-May-16 10:33N 50°47' W 001°07'0 0.0
2015-May-16 09:33N 50°47' W 001°07'0 0.0
2015-May-16 08:33N 50°47' W 001°07'0 0.0
2015-May-16 07:33N 50°47' W 001°07'0 0.0
2015-May-16 06:33N 50°47' W 001°07'0 0.0
2015-May-16 05:33N 50°47' W 001°07'0 0.0
2015-May-16 04:33N 50°47' W 001°07'0 0.3
2015-May-16 03:34N 50°48' W 001°07'6 5.6
2015-May-16 02:33N 50°43' W 001°01'8 8.5
2015-May-16 01:33N 50°37' W 000°53'33 9.6
2015-May-15 22:06N 50°32' W 000°02'710.0
2015-May-15 21:25N 50°34' E 000°09'9 9.3
2015-May-15 20:30N 50°36' E 000°22'8 8.6
2015-May-15 19:33N 50°38' E 000°34'8 8.1
2015-May-15 18:34N 50°43' E 000°45'10 9.3
2015-May-15 17:32N 50°48' E 000°57'1211.3
2015-May-15 16:31N 50°55' E 001°12'1212.5
2015-May-15 15:33N 51°03' E 001°26'1211.7
2015-May-15 14:34N 51°10' E 001°41'1010.3
2015-May-15 13:34N 51°19' E 001°50'9 8.9
2015-May-15 12:34N 51°27' E 001°57'9 8.7
2015-May-15 11:33N 51°34' E 002°05'8 8.4
2015-May-15 10:33N 51°40' E 002°15'30 9.5
2015-May-15 07:23N 52°00' E 002°51'1111.6
2015-May-15 06:26N 52°02' E 003°08'1310.3
2015-May-15 05:13N 52°06' E 003°28'53 8.0
2015-May-14 22:34N 52°56' E 003°58'3411.3
2015-May-14 19:34N 53°17' E 004°42'1312.8
2015-May-14 18:33N 53°19' E 005°03'9 9.2
2015-May-14 17:33N 53°14' E 005°16'6 6.3
2015-May-14 16:32N 53°11' E 005°26'0 0.0
2015-May-14 15:32N 53°11' E 005°26'0 0.0
2015-May-14 14:32N 53°11' E 005°26'0 0.0
2015-May-14 13:32N 53°11' E 005°26'0 0.0
2015-May-14 12:32N 53°11' E 005°26'0 0.0
2015-May-14 11:32N 53°11' E 005°26'0 0.0
2015-May-14 10:32N 53°11' E 005°26'0 0.0
2015-May-14 09:32N 53°11' E 005°26'0 0.0
2015-May-14 08:32N 53°11' E 005°26'0 0.0
2015-May-14 07:32N 53°11' E 005°26'0 0.0
2015-May-14 06:32N 53°11' E 005°26'0 0.0
2015-May-14 05:32N 53°11' E 005°26'0 0.0
2015-May-14 04:32N 53°11' E 005°26'0 0.0
2015-May-14 03:32N 53°11' E 005°26'0 0.0
2015-May-14 02:32N 53°11' E 005°26'0 0.0
2015-May-14 01:32N 53°11' E 005°26'0 0.0
2015-May-14 00:32N 53°11' E 005°26'0 0.0
2015-May-13 23:32N 53°11' E 005°26'0 0.0
2015-May-13 22:32N 53°11' E 005°26'0 0.0
2015-May-13 21:32N 53°11' E 005°26'0 0.0
2015-May-13 20:32N 53°11' E 005°26'0 0.0
2015-May-13 19:32N 53°11' E 005°26'0 0.0
2015-May-13 18:32N 53°11' E 005°26'0 0.0
2015-May-13 17:32N 53°11' E 005°26'0 0.0
2015-May-13 16:32N 53°11' E 005°26'0 0.0
2015-May-13 15:32N 53°11' E 005°26'0 0.0
2015-May-13 14:32N 53°11' E 005°26'0 0.0
2015-May-13 13:32N 53°11' E 005°26'0 0.0
2015-May-13 12:32N 53°11' E 005°26'0 0.0
2015-May-13 11:32N 53°11' E 005°26'0 0.0
2015-May-13 10:32N 53°11' E 005°26'0 0.0
2015-May-13 09:32N 53°11' E 005°26'0 0.0
2015-May-13 08:20N 53°11' E 005°26'  

Dump ship's entire track history